Time;durP1;ratioP1;P1;durP2;ratioP2;P2;SDS_P1;SDS_P2;PMS_P1;PMS_P2;Temp;Humidity;BMP_temperature;BMP_pressure;BME280_temperature;BME280_humidity;BME280_pressure;Samples;Min_cycle;Max_cycle;Signal;HPM_P1;HPM_P2
2022/05/05 00:00:07;;;;;;;10.32;7.22;;;;;;;;;;5103875;28;20517;-69
2022/05/05 00:02:34;;;;;;;8.38;7.57;;;;;;;;;;5103579;28;20531;-69
2022/05/05 00:05:00;;;;;;;7.70;7.00;;;;;;;;;;5103928;28;20407;-69
2022/05/05 00:07:26;;;;;;;8.10;7.38;;;;;;;;;;5103645;28;20206;-69
2022/05/05 00:09:53;;;;;;;8.43;7.72;;;;;;;;;;5103635;28;20536;-69
2022/05/05 00:15:05;;;;;;;10.35;8.32;;;;;;;;;;5103559;28;20206;-69
2022/05/05 00:17:33;;;;;;;8.85;7.97;;;;;;;;;;5102952;28;20199;-69
2022/05/05 00:20:00;;;;;;;8.27;7.53;;;;;;;;;;5103722;28;20212;-69
2022/05/05 00:22:26;;;;;;;8.50;7.80;;;;;;;;;;5103472;28;20195;-69
2022/05/05 00:24:53;;;;;;;8.95;8.13;;;;;;;;;;5103358;28;20218;-69
2022/05/05 00:27:21;;;;;;;8.63;7.90;;;;;;;;;;5102964;28;20359;-69
2022/05/05 00:29:48;;;;;;;7.80;7.10;;;;;;;;;;5102961;28;20222;-69
2022/05/05 00:32:15;;;;;;;8.13;7.50;;;;;;;;;;5102912;28;20207;-69
2022/05/05 00:34:41;;;;;;;8.85;7.18;;;;;;;;;;5103222;28;20199;-69
2022/05/05 00:37:07;;;;;;;8.13;7.43;;;;;;;;;;5103076;28;20195;-69
2022/05/05 00:39:33;;;;;;;7.78;7.13;;;;;;;;;;5103067;28;20496;-69
2022/05/05 00:42:00;;;;;;;8.50;7.80;;;;;;;;;;5102118;28;20200;-69
2022/05/05 00:44:28;;;;;;;8.25;7.55;;;;;;;;;;5102913;28;20195;-69
2022/05/05 00:46:55;;;;;;;9.95;8.20;;;;;;;;;;5102462;28;20214;-69
2022/05/05 00:49:21;;;;;;;8.70;7.90;;;;;;;;;;5102792;28;20199;-69
2022/05/05 00:51:47;;;;;;;8.23;7.38;;;;;;;;;;5102843;28;20543;-69
2022/05/05 00:54:14;;;;;;;8.65;7.82;;;;;;;;;;5102880;28;20521;-69
2022/05/05 00:56:41;;;;;;;7.05;6.57;;;;;;;;;;5102575;28;20446;-69
2022/05/05 00:59:08;;;;;;;8.55;7.85;;;;;;;;;;5102566;28;20199;-69
2022/05/05 01:01:36;;;;;;;7.60;7.00;;;;;;;;;;5102868;28;20461;-69
2022/05/05 01:04:03;;;;;;;8.68;7.90;;;;;;;;;;5102651;28;20203;-69
2022/05/05 01:06:30;;;;;;;7.82;7.22;;;;;;;;;;5102131;28;20365;-69
2022/05/05 01:08:56;;;;;;;8.43;7.63;;;;;;;;;;5102572;28;20195;-69
2022/05/05 01:11:22;;;;;;;12.18;7.72;;;;;;;;;;5102416;28;20222;-69
2022/05/05 01:13:48;;;;;;;9.82;8.93;;;;;;;;;;5102808;28;20203;-69
2022/05/05 01:16:15;;;;;;;10.25;8.52;;;;;;;;;;5102340;28;20503;-69
2022/05/05 01:18:43;;;;;;;8.05;7.45;;;;;;;;;;5102312;28;20203;-69
2022/05/05 01:21:09;;;;;;;9.98;8.98;;;;;;;;;;5102515;28;20509;-69
2022/05/05 01:23:37;;;;;;;9.18;7.97;;;;;;;;;;5102339;28;20507;-69
2022/05/05 01:28:48;;;;;;;9.13;8.18;;;;;;;;;;5102302;28;20245;-69
2022/05/05 01:31:15;;;;;;;10.50;9.10;;;;;;;;;;5102149;28;20410;-69
2022/05/05 01:33:41;;;;;;;9.73;8.77;;;;;;;;;;5102248;28;20211;-69
2022/05/05 01:36:07;;;;;;;9.15;8.35;;;;;;;;;;5102129;28;20207;-69
2022/05/05 01:38:37;;;;;;;9.15;8.35;;;;;;;;;;5102205;28;20196;-69
2022/05/05 01:41:05;;;;;;;8.30;7.45;;;;;;;;;;5102009;28;20254;-69
2022/05/05 01:43:31;;;;;;;8.80;8.00;;;;;;;;;;5101573;28;20203;-69
2022/05/05 01:45:57;;;;;;;9.20;7.97;;;;;;;;;;5102213;28;20257;-69
2022/05/05 01:48:23;;;;;;;8.50;7.65;;;;;;;;;;5102157;28;20202;-69
2022/05/05 01:50:50;;;;;;;11.23;8.43;;;;;;;;;;5102277;28;20215;-69
2022/05/05 01:53:16;;;;;;;9.60;7.82;;;;;;;;;;5103387;28;20200;-69
2022/05/05 01:55:42;;;;;;;15.40;8.70;;;;;;;;;;5106302;28;20195;-69
2022/05/05 01:58:10;;;;;;;8.70;7.97;;;;;;;;;;5105870;28;20200;-70
2022/05/05 02:00:36;;;;;;;9.80;8.23;;;;;;;;;;5105936;28;20492;-69
2022/05/05 02:03:04;;;;;;;11.13;8.57;;;;;;;;;;5106026;28;20207;-69
2022/05/05 02:05:31;;;;;;;9.43;8.40;;;;;;;;;;5106108;28;20215;-69
2022/05/05 02:07:57;;;;;;;9.43;8.57;;;;;;;;;;5105862;28;20434;-69
2022/05/05 02:10:24;;;;;;;10.35;8.65;;;;;;;;;;5105859;28;20273;-69
2022/05/05 02:12:53;;;;;;;12.35;9.15;;;;;;;;;;5105813;28;20203;-69
2022/05/05 02:15:20;;;;;;;9.65;8.75;;;;;;;;;;5105646;28;20210;-69
2022/05/05 02:17:47;;;;;;;11.35;10.23;;;;;;;;;;5105717;28;20499;-69
2022/05/05 02:20:13;;;;;;;11.52;9.70;;;;;;;;;;5105794;28;20192;-69
2022/05/05 02:22:40;;;;;;;10.80;9.70;;;;;;;;;;5105836;28;20196;-69
2022/05/05 02:25:06;;;;;;;10.70;9.55;;;;;;;;;;5105571;28;20207;-69
2022/05/05 02:27:44;;;;;;;10.93;9.88;;;;;;;;;;5105323;28;20241;-69
2022/05/05 02:30:11;;;;;;;11.43;10.25;;;;;;;;;;5105441;28;20275;-69
2022/05/05 02:32:39;;;;;;;11.00;9.48;;;;;;;;;;5105771;28;20403;-69
2022/05/05 02:35:06;;;;;;;10.45;9.55;;;;;;;;;;5105462;28;20196;-69
2022/05/05 02:40:16;;;;;;;11.57;10.38;;;;;;;;;;5105385;28;20191;-69
2022/05/05 02:42:42;;;;;;;12.18;10.93;;;;;;;;;;5105397;28;20196;-69
2022/05/05 02:45:09;;;;;;;12.38;11.07;;;;;;;;;;5105360;28;20196;-69
2022/05/05 02:47:35;;;;;;;11.77;10.60;;;;;;;;;;5105170;28;20234;-69
2022/05/05 02:50:03;;;;;;;12.43;11.13;;;;;;;;;;5105084;28;20196;-69
2022/05/05 02:52:29;;;;;;;14.70;11.95;;;;;;;;;;5105216;28;20196;-69
2022/05/05 02:54:55;;;;;;;13.35;12.02;;;;;;;;;;5104927;28;20233;-69
2022/05/05 02:57:23;;;;;;;14.77;11.35;;;;;;;;;;5105296;28;20237;-69
2022/05/05 02:59:50;;;;;;;13.93;11.27;;;;;;;;;;5105130;28;20530;-69
2022/05/05 03:02:16;;;;;;;13.07;11.43;;;;;;;;;;5104909;28;20224;-69
2022/05/05 03:04:42;;;;;;;11.75;10.68;;;;;;;;;;5104023;28;20507;-69
2022/05/05 03:07:10;;;;;;;12.32;11.00;;;;;;;;;;5104475;28;20424;-69
2022/05/05 03:09:36;;;;;;;12.48;11.27;;;;;;;;;;5104930;28;20203;-69
2022/05/05 03:12:03;;;;;;;13.00;11.10;;;;;;;;;;5104748;28;20223;-69
2022/05/05 03:14:29;;;;;;;14.73;11.73;;;;;;;;;;5104904;28;20195;-69
2022/05/05 03:16:55;;;;;;;12.80;11.57;;;;;;;;;;5104614;28;20200;-69
2022/05/05 03:19:22;;;;;;;12.52;11.23;;;;;;;;;;5104550;28;20196;-69
2022/05/05 03:21:48;;;;;;;13.02;11.82;;;;;;;;;;5104562;28;20202;-69
2022/05/05 03:24:15;;;;;;;13.73;12.32;;;;;;;;;;5104696;28;20200;-69
2022/05/05 03:26:42;;;;;;;16.10;13.07;;;;;;;;;;5104425;28;20196;-69
2022/05/05 03:29:08;;;;;;;12.27;11.18;;;;;;;;;;5104619;28;20537;-69
2022/05/05 03:31:34;;;;;;;13.57;12.00;;;;;;;;;;5104359;28;20223;-69
2022/05/05 03:34:01;;;;;;;13.07;11.70;;;;;;;;;;5104308;28;20233;-69
2022/05/05 03:36:27;;;;;;;12.55;11.35;;;;;;;;;;5103989;28;20424;-69
2022/05/05 03:38:54;;;;;;;14.18;11.90;;;;;;;;;;5104456;28;20196;-69
2022/05/05 03:41:21;;;;;;;13.88;11.82;;;;;;;;;;5104342;28;20283;-69
2022/05/05 03:43:48;;;;;;;14.73;13.23;;;;;;;;;;5104089;28;20199;-69
2022/05/05 03:46:14;;;;;;;13.55;12.15;;;;;;;;;;5103893;28;20257;-69
2022/05/05 03:48:40;;;;;;;14.48;13.02;;;;;;;;;;5104035;28;20218;-69
2022/05/05 03:51:07;;;;;;;13.75;12.35;;;;;;;;;;5103759;28;20261;-69
2022/05/05 03:53:33;;;;;;;14.32;12.73;;;;;;;;;;5104198;28;20267;-69
2022/05/05 03:55:59;;;;;;;14.02;12.63;;;;;;;;;;5103743;28;20199;-69
2022/05/05 03:58:27;;;;;;;13.88;11.70;;;;;;;;;;5103825;28;20202;-69
2022/05/05 04:00:53;;;;;;;14.30;12.77;;;;;;;;;;5103934;28;20196;-69
2022/05/05 04:06:01;;;;;;;13.07;11.68;;;;;;;;;;5101376;28;20207;-69
2022/05/05 04:08:27;;;;;;;13.32;12.07;;;;;;;;;;5103844;28;20211;-69
2022/05/05 04:10:53;;;;;;;13.38;12.18;;;;;;;;;;5103478;28;20265;-69
2022/05/05 04:13:21;;;;;;;13.38;11.43;;;;;;;;;;5103551;28;20218;-69
2022/05/05 04:15:49;;;;;;;13.40;11.98;;;;;;;;;;5103366;28;20196;-69
2022/05/05 04:18:15;;;;;;;13.15;11.85;;;;;;;;;;5103101;28;20196;-69
2022/05/05 04:20:42;;;;;;;13.32;11.50;;;;;;;;;;5103407;28;20196;-69
2022/05/05 04:23:08;;;;;;;13.57;12.18;;;;;;;;;;5103465;28;20394;-69
2022/05/05 04:25:34;;;;;;;12.95;11.75;;;;;;;;;;5103324;28;20196;-69
2022/05/05 04:28:01;;;;;;;12.73;11.43;;;;;;;;;;5103121;28;20499;-69
2022/05/05 04:30:27;;;;;;;13.20;11.93;;;;;;;;;;5102984;28;20196;-69
2022/05/05 04:32:55;;;;;;;13.98;12.35;;;;;;;;;;5103143;28;20226;-69
2022/05/05 04:35:23;;;;;;;16.00;12.52;;;;;;;;;;5103062;28;20199;-69
2022/05/05 04:37:49;;;;;;;15.18;13.05;;;;;;;;;;5102886;28;20230;-69
2022/05/05 04:40:16;;;;;;;19.20;14.88;;;;;;;;;;5103155;28;20195;-69
2022/05/05 04:42:42;;;;;;;25.13;17.27;;;;;;;;;;5103037;28;20191;-69
2022/05/05 04:45:09;;;;;;;14.48;12.68;;;;;;;;;;5102909;28;20199;-69
2022/05/05 04:47:35;;;;;;;14.05;11.35;;;;;;;;;;5102911;28;20385;-69
2022/05/05 04:50:02;;;;;;;13.60;12.20;;;;;;;;;;5103000;28;20507;-69
2022/05/05 04:52:31;;;;;;;12.23;11.02;;;;;;;;;;5102889;28;20531;-69
2022/05/05 04:54:57;;;;;;;13.60;12.23;;;;;;;;;;5102795;28;20250;-69
2022/05/05 04:57:23;;;;;;;13.00;10.85;;;;;;;;;;5102510;28;20195;-69
2022/05/05 04:59:50;;;;;;;13.20;11.90;;;;;;;;;;5102679;28;20196;-69
2022/05/05 05:02:16;;;;;;;12.88;11.15;;;;;;;;;;5102741;28;20526;-69
2022/05/05 05:04:42;;;;;;;13.27;11.90;;;;;;;;;;5102805;28;20195;-69
2022/05/05 05:07:10;;;;;;;13.82;12.35;;;;;;;;;;5102188;28;20191;-69
2022/05/05 05:09:36;;;;;;;14.40;12.40;;;;;;;;;;5102610;28;20196;-69
2022/05/05 05:12:03;;;;;;;14.27;12.80;;;;;;;;;;5102547;28;20219;-69
2022/05/05 05:14:29;;;;;;;14.00;12.60;;;;;;;;;;5102928;28;20242;-69
2022/05/05 05:16:55;;;;;;;13.52;12.18;;;;;;;;;;5102414;28;20199;-69
2022/05/05 05:19:21;;;;;;;16.20;12.18;;;;;;;;;;5102610;28;20241;-69
2022/05/05 05:21:48;;;;;;;13.93;12.60;;;;;;;;;;5102487;28;20200;-69
2022/05/05 05:24:15;;;;;;;14.52;12.88;;;;;;;;;;5102462;28;20200;-69
2022/05/05 05:26:42;;;;;;;13.98;12.68;;;;;;;;;;5101996;28;20388;-69
2022/05/05 05:29:08;;;;;;;14.18;12.45;;;;;;;;;;5103396;28;20195;-69
2022/05/05 05:31:34;;;;;;;16.25;12.60;;;;;;;;;;5105134;28;20249;-69
2022/05/05 05:34:01;;;;;;;14.00;12.50;;;;;;;;;;5101947;28;20499;-69
2022/05/05 05:36:27;;;;;;;14.23;12.38;;;;;;;;;;5101876;28;20479;-69
2022/05/05 05:38:53;;;;;;;14.60;13.10;;;;;;;;;;5102114;28;20195;-69
2022/05/05 05:41:21;;;;;;;15.40;12.27;;;;;;;;;;5101567;28;20191;-69
2022/05/05 05:43:47;;;;;;;14.35;12.90;;;;;;;;;;5101453;28;20391;-69
2022/05/05 05:46:14;;;;;;;13.85;12.55;;;;;;;;;;5101556;28;20222;-69
2022/05/05 05:48:40;;;;;;;15.90;12.07;;;;;;;;;;5101527;28;20210;-69
2022/05/05 05:51:06;;;;;;;16.30;12.98;;;;;;;;;;5101497;28;20207;-67
2022/05/05 05:53:33;;;;;;;15.73;12.70;;;;;;;;;;5101531;28;20220;-67
2022/05/05 05:55:59;;;;;;;14.30;12.80;;;;;;;;;;5101157;28;20203;-68
2022/05/05 05:58:27;;;;;;;14.93;13.05;;;;;;;;;;5093147;28;20213;-62
2022/05/05 06:00:53;;;;;;;13.70;11.65;;;;;;;;;;5091523;28;20287;-62
2022/05/05 06:06:03;;;;;;;14.02;12.65;;;;;;;;;;5091427;28;20595;-61
2022/05/05 06:08:29;;;;;;;15.23;12.52;;;;;;;;;;5094116;28;20415;-61
2022/05/05 06:10:56;;;;;;;14.07;12.57;;;;;;;;;;5095699;28;20208;-62
2022/05/05 06:13:22;;;;;;;14.18;12.77;;;;;;;;;;5091740;28;20221;-62
2022/05/05 06:15:49;;;;;;;15.50;12.45;;;;;;;;;;5095828;28;20229;-62
2022/05/05 06:18:16;;;;;;;14.07;12.65;;;;;;;;;;5095971;28;20557;-62
2022/05/05 06:20:42;;;;;;;12.73;11.50;;;;;;;;;;5095770;28;20245;-62
2022/05/05 06:23:08;;;;;;;12.20;11.20;;;;;;;;;;5095748;28;20214;-62
2022/05/05 06:25:34;;;;;;;12.00;10.82;;;;;;;;;;5095419;28;20212;-61
2022/05/05 06:28:04;;;;;;;12.35;11.25;;;;;;;;;;5095891;28;20380;-61
2022/05/05 06:30:31;;;;;;;13.82;11.38;;;;;;;;;;5095591;28;20450;-62
2022/05/05 06:32:59;;;;;;;13.07;11.73;;;;;;;;;;5096302;28;20600;-62
2022/05/05 06:35:25;;;;;;;12.00;10.80;;;;;;;;;;5095867;28;20293;-62
2022/05/05 06:37:52;;;;;;;13.27;11.43;;;;;;;;;;5095707;28;20203;-60
2022/05/05 06:40:18;;;;;;;14.05;12.75;;;;;;;;;;5096753;28;20214;-60
2022/05/05 06:42:44;;;;;;;13.70;11.98;;;;;;;;;;5099617;28;20211;-60
2022/05/05 06:45:11;;;;;;;13.95;12.35;;;;;;;;;;5099339;28;20207;-61
2022/05/05 06:47:37;;;;;;;12.68;11.38;;;;;;;;;;5099472;28;20230;-61
2022/05/05 06:50:06;;;;;;;14.38;12.77;;;;;;;;;;5099024;28;20229;-60
2022/05/05 06:52:32;;;;;;;13.68;12.35;;;;;;;;;;5099199;28;20272;-61
2022/05/05 06:54:58;;;;;;;14.20;12.73;;;;;;;;;;5099473;28;20207;-59
2022/05/05 06:57:24;;;;;;;16.33;12.32;;;;;;;;;;5099217;28;20207;-60
2022/05/05 06:59:51;;;;;;;14.52;12.77;;;;;;;;;;5099366;28;20306;-61
2022/05/05 07:02:17;;;;;;;12.90;11.55;;;;;;;;;;5099152;28;20212;-62
2022/05/05 07:07:28;;;;;;;14.02;12.27;;;;;;;;;;5098604;28;20559;-62
2022/05/05 07:12:39;;;;;;;15.30;11.82;;;;;;;;;;5099140;28;20245;-62
2022/05/05 07:15:06;;;;;;;13.18;11.73;;;;;;;;;;5098926;28;20261;-62
2022/05/05 07:17:35;;;;;;;15.13;11.88;;;;;;;;;;5098643;28;20207;-62
2022/05/05 07:20:01;;;;;;;15.20;11.70;;;;;;;;;;5079403;28;20239;-60
2022/05/05 07:22:29;;;;;;;13.07;11.75;;;;;;;;;;5078367;28;20208;-60
2022/05/05 07:24:55;;;;;;;14.50;11.68;;;;;;;;;;5078830;28;20212;-60
2022/05/05 07:27:21;;;;;;;12.30;11.05;;;;;;;;;;5078476;28;20208;-61
2022/05/05 07:29:47;;;;;;;13.57;11.48;;;;;;;;;;5078271;28;20231;-60
2022/05/05 07:32:15;;;;;;;13.00;11.68;;;;;;;;;;5078753;28;20583;-60
2022/05/05 07:34:42;;;;;;;12.48;11.27;;;;;;;;;;5078831;28;20461;-60
2022/05/05 07:37:08;;;;;;;12.82;11.55;;;;;;;;;;5078372;28;20230;-60
2022/05/05 07:39:36;;;;;;;15.05;11.95;;;;;;;;;;5078024;28;20204;-60
2022/05/05 07:42:02;;;;;;;12.43;11.15;;;;;;;;;;5078070;28;20208;-60
2022/05/05 07:44:28;;;;;;;13.45;12.10;;;;;;;;;;5077901;28;20241;-61
2022/05/05 07:46:56;;;;;;;15.23;11.55;;;;;;;;;;5078390;28;20212;-61
2022/05/05 07:49:23;;;;;;;19.02;12.57;;;;;;;;;;5078283;28;20236;-61
2022/05/05 07:51:51;;;;;;;13.93;12.43;;;;;;;;;;5077405;28;20395;-62
2022/05/05 07:54:38;;;;;;;14.85;11.60;;;;;;;;;;5090149;28;20207;-62
2022/05/05 07:57:07;;;;;;;14.32;12.82;;;;;;;;;;5077736;28;20208;-62
2022/05/05 07:59:33;;;;;;;15.80;11.70;;;;;;;;;;5077753;28;20231;-62
2022/05/05 08:02:00;;;;;;;12.73;11.57;;;;;;;;;;5077508;28;20204;-62
2022/05/05 08:04:26;;;;;;;12.98;11.68;;;;;;;;;;5077477;28;20212;-62
2022/05/05 08:06:53;;;;;;;12.75;11.45;;;;;;;;;;5095762;28;20290;-61
2022/05/05 08:09:19;;;;;;;12.65;11.52;;;;;;;;;;5097617;28;20208;-61
2022/05/05 08:11:46;;;;;;;14.25;11.95;;;;;;;;;;5097404;28;20561;-61
2022/05/05 08:14:14;;;;;;;13.55;12.20;;;;;;;;;;5098098;28;20418;-61
2022/05/05 08:16:40;;;;;;;13.07;11.77;;;;;;;;;;5097574;28;20208;-62
2022/05/05 08:19:07;;;;;;;16.73;11.75;;;;;;;;;;5097679;28;20207;-63
2022/05/05 08:21:34;;;;;;;13.63;12.15;;;;;;;;;;5097772;28;20214;-61
2022/05/05 08:29:29;;;;;;;13.32;11.98;;;;;;;;;;5097539;28;20445;-61
2022/05/05 08:31:55;;;;;;;14.82;12.50;;;;;;;;;;5097098;28;20208;-61
2022/05/05 08:34:22;;;;;;;13.10;11.80;;;;;;;;;;5097428;28;20208;-61
2022/05/05 08:36:48;;;;;;;14.38;12.88;;;;;;;;;;5097107;28;20208;-61
2022/05/05 08:39:14;;;;;;;13.32;12.13;;;;;;;;;;5097031;28;20207;-61
2022/05/05 08:41:41;;;;;;;13.65;12.25;;;;;;;;;;5096968;28;20207;-62
2022/05/05 08:44:08;;;;;;;13.57;12.23;;;;;;;;;;5097216;28;20204;-61
2022/05/05 08:46:40;;;;;;;14.05;12.43;;;;;;;;;;5096941;28;20572;-62
2022/05/05 08:49:07;;;;;;;13.63;12.23;;;;;;;;;;5096958;28;20450;-61
2022/05/05 08:51:37;;;;;;;13.48;12.13;;;;;;;;;;5096896;28;20208;-61
2022/05/05 08:54:07;;;;;;;13.75;12.25;;;;;;;;;;5096956;28;20227;-61
2022/05/05 08:56:33;;;;;;;13.15;11.52;;;;;;;;;;5097023;28;20238;-61
2022/05/05 08:58:59;;;;;;;13.95;12.55;;;;;;;;;;5097278;28;20245;-60
2022/05/05 09:01:27;;;;;;;15.60;13.40;;;;;;;;;;5097150;28;20360;-61
2022/05/05 09:03:55;;;;;;;16.15;14.45;;;;;;;;;;5096781;28;20274;-61
2022/05/05 09:06:23;;;;;;;14.88;13.35;;;;;;;;;;5096743;28;20265;-61
2022/05/05 09:08:49;;;;;;;16.52;14.52;;;;;;;;;;5097097;28;20208;-61
2022/05/05 09:11:18;;;;;;;14.73;13.32;;;;;;;;;;5096584;28;20203;-61
2022/05/05 09:13:44;;;;;;;15.40;13.82;;;;;;;;;;5096742;28;20255;-61
2022/05/05 09:16:10;;;;;;;16.25;13.98;;;;;;;;;;5096276;28;20211;-61
2022/05/05 09:18:38;;;;;;;15.00;13.38;;;;;;;;;;5096607;28;20203;-62
2022/05/05 09:21:07;;;;;;;20.38;15.35;;;;;;;;;;5096034;28;20579;-62
2022/05/05 09:23:34;;;;;;;17.50;15.25;;;;;;;;;;5096528;28;20454;-62
2022/05/05 09:26:01;;;;;;;17.13;15.15;;;;;;;;;;5096306;28;20215;-62
2022/05/05 09:28:30;;;;;;;19.73;16.02;;;;;;;;;;5096366;28;20319;-61
2022/05/05 09:31:01;;;;;;;17.35;15.27;;;;;;;;;;5096331;28;20446;-61
2022/05/05 09:33:38;;;;;;;17.33;14.65;;;;;;;;;;5096683;28;20282;-62
2022/05/05 09:36:07;;;;;;;19.33;15.07;;;;;;;;;;5096451;28;20449;-62
2022/05/05 09:38:47;;;;;;;16.27;14.52;;;;;;;;;;5096645;28;20204;-62
2022/05/05 09:41:14;;;;;;;17.83;14.45;;;;;;;;;;5096639;28;20211;-61
2022/05/05 09:43:40;;;;;;;19.75;13.80;;;;;;;;;;5096614;28;20516;-61
2022/05/05 09:46:28;;;;;;;20.73;16.00;;;;;;;;;;5096570;28;20231;-61
2022/05/05 09:48:54;;;;;;;16.30;14.70;;;;;;;;;;5096180;28;20211;-61
2022/05/05 09:51:22;;;;;;;15.77;14.23;;;;;;;;;;5096258;28;20546;-60
2022/05/05 09:59:30;;;;;;;18.02;14.23;;;;;;;;;;5095564;28;20257;-61
2022/05/05 10:02:02;;;;;;;15.95;14.02;;;;;;;;;;5095851;28;20205;-61
2022/05/05 10:04:30;;;;;;;17.08;14.93;;;;;;;;;;5096290;28;20207;-62
2022/05/05 10:06:58;;;;;;;15.70;14.20;;;;;;;;;;5095925;28;20224;-61
2022/05/05 10:09:24;;;;;;;16.35;14.75;;;;;;;;;;5096016;28;20207;-60
2022/05/05 10:11:50;;;;;;;17.88;15.55;;;;;;;;;;5095846;28;20488;-61
2022/05/05 10:14:17;;;;;;;18.88;15.10;;;;;;;;;;5096908;28;20227;-61
2022/05/05 10:16:43;;;;;;;17.27;15.50;;;;;;;;;;5099603;28;20214;-61
2022/05/05 10:19:10;;;;;;;17.08;15.23;;;;;;;;;;5099812;28;20212;-60
2022/05/05 10:21:45;;;;;;;19.77;16.17;;;;;;;;;;5100140;28;20212;-61
2022/05/05 10:24:17;;;;;;;17.52;15.73;;;;;;;;;;5099960;28;20384;-62
2022/05/05 10:26:48;;;;;;;25.00;17.00;;;;;;;;;;5099566;28;20523;-62
2022/05/05 10:29:33;;;;;;;22.60;18.20;;;;;;;;;;5099906;28;20215;-62
2022/05/05 10:32:05;;;;;;;20.60;18.48;;;;;;;;;;5099771;28;20221;-62
2022/05/05 10:34:32;;;;;;;22.70;19.85;;;;;;;;;;5099724;28;20230;-62
2022/05/05 10:37:00;;;;;;;26.00;19.95;;;;;;;;;;5099758;28;20204;-61
2022/05/05 10:39:41;;;;;;;28.23;19.90;;;;;;;;;;5099335;28;20428;-61
2022/05/05 10:42:17;;;;;;;22.35;19.48;;;;;;;;;;5099760;28;20226;-62
2022/05/05 10:45:03;;;;;;;22.23;19.73;;;;;;;;;;5098850;28;20207;-61
2022/05/05 10:47:58;;;;;;;21.67;19.38;;;;;;;;;;5099457;28;20240;-62
2022/05/05 10:50:28;;;;;;;25.02;20.52;;;;;;;;;;5099080;28;20200;-61
2022/05/05 10:52:54;;;;;;;23.92;21.08;;;;;;;;;;5099037;28;20216;-61
2022/05/05 10:55:28;;;;;;;25.45;20.42;;;;;;;;;;5099352;28;20569;-61
2022/05/05 10:57:55;;;;;;;26.33;20.88;;;;;;;;;;5098958;28;20213;-62
2022/05/05 11:00:22;;;;;;;22.48;19.60;;;;;;;;;;5098781;28;20404;-61
2022/05/05 11:03:09;;;;;;;24.67;21.08;;;;;;;;;;5098305;28;20371;-60
2022/05/05 11:05:36;;;;;;;24.80;22.27;;;;;;;;;;5099034;28;20630;-61
2022/05/05 11:08:19;;;;;;;25.52;21.83;;;;;;;;;;5098787;28;20253;-61
2022/05/05 11:10:47;;;;;;;27.67;22.00;;;;;;;;;;5098372;28;20267;-61
2022/05/05 11:13:32;;;;;;;24.27;20.83;;;;;;;;;;5086333;28;20231;-61
2022/05/05 11:21:55;;;;;;;26.42;20.70;;;;;;;;;;5078997;28;20207;-60
2022/05/05 11:24:26;;;;;;;21.98;19.63;;;;;;;;;;5078784;28;20209;-60
2022/05/05 11:26:54;;;;;;;23.05;20.60;;;;;;;;;;5078000;28;20236;-60
2022/05/05 11:29:20;;;;;;;21.77;19.42;;;;;;;;;;5078483;28;20664;-60
2022/05/05 11:31:56;;;;;;;25.83;21.17;;;;;;;;;;5078252;28;20524;-61
2022/05/05 11:34:22;;;;;;;31.45;20.77;;;;;;;;;;5078637;28;20420;-60
2022/05/05 11:36:49;;;;;;;24.17;20.17;;;;;;;;;;5078239;28;20208;-60
2022/05/05 11:39:20;;;;;;;23.10;19.67;;;;;;;;;;5078060;28;20211;-60
2022/05/05 11:41:57;;;;;;;24.45;20.27;;;;;;;;;;5077978;28;20250;-60
2022/05/05 11:44:25;;;;;;;26.67;20.92;;;;;;;;;;5078233;28;20361;-60
2022/05/05 11:46:53;;;;;;;27.92;21.23;;;;;;;;;;5078092;28;20262;-60
2022/05/05 11:49:19;;;;;;;28.42;21.48;;;;;;;;;;5078165;28;20209;-60
2022/05/05 11:51:45;;;;;;;23.73;20.30;;;;;;;;;;5077698;28;20209;-62
2022/05/05 11:54:14;;;;;;;25.95;20.77;;;;;;;;;;5088948;28;20219;-61
2022/05/05 11:56:43;;;;;;;23.08;20.33;;;;;;;;;;5098195;28;20208;-60
2022/05/05 12:01:59;;;;;;;25.58;20.65;;;;;;;;;;5097795;28;20368;-62
2022/05/05 12:04:26;;;;;;;24.98;20.50;;;;;;;;;;5098209;28;20207;-62
2022/05/05 12:06:52;;;;;;;26.40;20.75;;;;;;;;;;5097541;28;20224;-62
2022/05/05 12:09:20;;;;;;;21.23;18.92;;;;;;;;;;5097905;28;20211;-62
2022/05/05 12:11:46;;;;;;;24.60;20.88;;;;;;;;;;5098069;28;20215;-62
2022/05/05 12:14:14;;;;;;;23.63;20.58;;;;;;;;;;5097859;28;20477;-61
2022/05/05 12:16:44;;;;;;;23.02;20.52;;;;;;;;;;5097694;28;20226;-62
2022/05/05 12:19:11;;;;;;;22.83;20.48;;;;;;;;;;5097780;28;20584;-61
2022/05/05 12:21:38;;;;;;;24.27;21.23;;;;;;;;;;5097188;28;20248;-62
2022/05/05 12:24:05;;;;;;;21.58;19.52;;;;;;;;;;5097643;28;20241;-62
2022/05/05 12:26:32;;;;;;;21.52;19.30;;;;;;;;;;5097135;28;20203;-62
2022/05/05 12:28:59;;;;;;;25.83;20.67;;;;;;;;;;5097529;28;20207;-62
2022/05/05 12:31:28;;;;;;;21.98;19.88;;;;;;;;;;5096642;28;20208;-63
2022/05/05 12:33:55;;;;;;;22.00;18.98;;;;;;;;;;5097308;28;20592;-62
2022/05/05 12:36:26;;;;;;;22.98;20.58;;;;;;;;;;5097149;28;20496;-63
2022/05/05 12:38:53;;;;;;;20.20;18.23;;;;;;;;;;5097439;28;20466;-62
2022/05/05 12:41:19;;;;;;;21.05;18.95;;;;;;;;;;5096913;28;20408;-62
2022/05/05 12:43:46;;;;;;;20.60;18.50;;;;;;;;;;5097248;28;20219;-62
2022/05/05 12:46:16;;;;;;;22.30;19.88;;;;;;;;;;5096971;28;20216;-62
2022/05/05 12:48:45;;;;;;;24.05;20.65;;;;;;;;;;5097073;28;20543;-62
2022/05/05 12:51:15;;;;;;;22.70;20.10;;;;;;;;;;5096742;28;20215;-62
2022/05/05 13:01:56;;;;;;;23.63;19.33;;;;;;;;;;5096748;28;20306;-62
2022/05/05 13:04:24;;;;;;;24.60;21.65;;;;;;;;;;5097133;28;20556;-62
2022/05/05 13:06:53;;;;;;;24.05;20.92;;;;;;;;;;5096407;28;20231;-62
2022/05/05 13:09:20;;;;;;;23.13;20.60;;;;;;;;;;5096530;28;20596;-62
2022/05/05 13:11:47;;;;;;;20.60;18.60;;;;;;;;;;5096405;28;20203;-62
2022/05/05 13:14:15;;;;;;;22.75;20.30;;;;;;;;;;5096502;28;20219;-62
2022/05/05 13:16:42;;;;;;;22.73;20.45;;;;;;;;;;5096263;28;20207;-62
2022/05/05 13:19:09;;;;;;;22.02;19.77;;;;;;;;;;5096469;28;20240;-61
2022/05/05 13:21:38;;;;;;;24.98;20.08;;;;;;;;;;5096218;28;20454;-61
2022/05/05 13:24:05;;;;;;;24.05;21.42;;;;;;;;;;5096237;28;20209;-60
2022/05/05 13:26:32;;;;;;;24.30;20.13;;;;;;;;;;5096622;28;20414;-61
2022/05/05 13:29:00;;;;;;;21.70;19.25;;;;;;;;;;5096713;28;20207;-61
2022/05/05 13:31:26;;;;;;;25.83;21.80;;;;;;;;;;5096303;28;20376;-61
2022/05/05 13:33:53;;;;;;;23.15;20.85;;;;;;;;;;5096611;28;20228;-61
2022/05/05 13:36:20;;;;;;;24.75;21.63;;;;;;;;;;5096344;28;20208;-61
2022/05/05 13:38:48;;;;;;;24.83;22.23;;;;;;;;;;5096541;28;20523;-61
2022/05/05 13:41:15;;;;;;;28.35;22.83;;;;;;;;;;5096075;28;20208;-62
2022/05/05 13:43:41;;;;;;;29.92;21.50;;;;;;;;;;5096586;28;20204;-62
2022/05/05 13:46:08;;;;;;;24.20;21.05;;;;;;;;;;5096218;28;20238;-62
2022/05/05 13:48:35;;;;;;;21.15;18.90;;;;;;;;;;5096355;28;20208;-63
2022/05/05 13:51:03;;;;;;;24.15;19.35;;;;;;;;;;5099982;28;20211;-62
2022/05/05 13:53:30;;;;;;;23.05;18.63;;;;;;;;;;5100167;28;20203;-62
2022/05/05 13:55:57;;;;;;;19.38;17.27;;;;;;;;;;5100523;28;20214;-62
2022/05/05 13:58:25;;;;;;;17.55;15.25;;;;;;;;;;5100655;28;20245;-62
2022/05/05 14:00:52;;;;;;;18.73;16.55;;;;;;;;;;5096328;28;20208;-61
2022/05/05 14:03:18;;;;;;;17.35;15.52;;;;;;;;;;5091199;28;20235;-61
2022/05/05 14:05:45;;;;;;;18.90;16.95;;;;;;;;;;5099278;28;20515;-62
2022/05/05 14:13:58;;;;;;;19.45;15.38;;;;;;;;;;5099290;28;20550;-61
2022/05/05 14:16:27;;;;;;;16.20;14.45;;;;;;;;;;5100035;28;20211;-62
2022/05/05 14:18:54;;;;;;;18.00;15.32;;;;;;;;;;5099873;28;20207;-62
2022/05/05 14:21:20;;;;;;;19.75;16.92;;;;;;;;;;5099642;28;20367;-62
2022/05/05 14:23:48;;;;;;;19.02;16.65;;;;;;;;;;5100271;28;20211;-62
2022/05/05 14:26:16;;;;;;;20.50;17.10;;;;;;;;;;5099910;28;20265;-62
2022/05/05 14:28:45;;;;;;;20.50;17.27;;;;;;;;;;5099967;28;20404;-62
2022/05/05 14:31:11;;;;;;;22.27;17.70;;;;;;;;;;5099452;28;20322;-61
2022/05/05 14:33:38;;;;;;;21.55;18.38;;;;;;;;;;5099900;28;20266;-62
2022/05/05 14:36:06;;;;;;;20.73;18.00;;;;;;;;;;5099223;28;20257;-62
2022/05/05 14:38:33;;;;;;;19.40;15.60;;;;;;;;;;5099610;28;20567;-62
2022/05/05 14:41:00;;;;;;;16.77;15.15;;;;;;;;;;5098993;28;20208;-62
2022/05/05 14:43:28;;;;;;;23.20;17.92;;;;;;;;;;5099409;28;20279;-62
2022/05/05 14:45:56;;;;;;;21.33;17.73;;;;;;;;;;5099443;28;20204;-62
2022/05/05 14:48:23;;;;;;;21.20;16.77;;;;;;;;;;5099402;28;20424;-62
2022/05/05 14:50:50;;;;;;;20.77;18.08;;;;;;;;;;5102473;28;20381;-63
2022/05/05 14:53:16;;;;;;;27.38;19.85;;;;;;;;;;5101993;28;20406;-61
2022/05/05 14:55:43;;;;;;;23.30;19.38;;;;;;;;;;5101885;28;20567;-61
2022/05/05 14:58:10;;;;;;;23.23;19.25;;;;;;;;;;5102083;28;20219;-61
2022/05/05 15:00:39;;;;;;;25.80;19.58;;;;;;;;;;5100872;28;20500;-61
2022/05/05 15:03:06;;;;;;;21.50;19.00;;;;;;;;;;5102138;28;20278;-61
2022/05/05 15:05:33;;;;;;;23.42;18.35;;;;;;;;;;5101863;28;20227;-62
2022/05/05 15:07:59;;;;;;;26.30;19.85;;;;;;;;;;5101635;28;20442;-61
2022/05/05 15:10:25;;;;;;;23.55;20.13;;;;;;;;;;5101940;28;20508;-61
2022/05/05 15:12:52;;;;;;;24.13;20.83;;;;;;;;;;5102032;28;20523;-61
2022/05/05 15:15:18;;;;;;;23.83;19.67;;;;;;;;;;5101668;28;20574;-61